createdAt,value
2023-06-11T00:01:43.889Z,62.84
2023-06-11T00:03:53.487Z,63.04
2023-06-11T00:05:55.138Z,63.19
2023-06-11T00:08:01.423Z,63.35
2023-06-11T00:10:04.497Z,63.33
2023-06-11T00:12:06.662Z,63.47
2023-06-11T00:14:09.767Z,63.29
2023-06-11T00:16:14.100Z,63.40
2023-06-11T00:18:18.005Z,63.31
2023-06-11T00:20:19.593Z,63.11
2023-06-11T00:22:21.082Z,63.24
2023-06-11T00:24:22.709Z,63.22
2023-06-11T00:26:24.203Z,63.15
2023-06-11T00:28:25.771Z,63.48
2023-06-11T00:30:27.276Z,63.34
2023-06-11T00:32:28.879Z,63.84
2023-06-11T00:34:30.429Z,64.18
2023-06-11T00:36:33.682Z,63.98
2023-06-11T00:38:35.436Z,63.63
2023-06-11T00:40:36.997Z,63.55
2023-06-11T00:42:39.245Z,63.38
2023-06-11T00:44:41.726Z,63.32
2023-06-11T00:46:43.736Z,63.57
2023-06-11T00:48:45.628Z,63.01
2023-06-11T00:50:52.003Z,63.19
2023-06-11T00:52:53.565Z,62.89
2023-06-11T00:54:58.654Z,62.83
2023-06-11T00:57:01.162Z,62.74
2023-06-11T00:59:02.720Z,62.69
2023-06-11T01:01:06.717Z,62.53
2023-06-11T01:03:12.387Z,62.53
2023-06-11T01:05:18.879Z,62.71
2023-06-11T01:07:23.717Z,62.27
2023-06-11T01:09:26.321Z,61.94
2023-06-11T01:11:28.576Z,61.85
2023-06-11T01:13:30.168Z,61.57
2023-06-11T01:15:31.678Z,61.50
2023-06-11T01:17:45.894Z,61.44
2023-06-11T01:19:59.679Z,61.09
2023-06-11T01:22:55.298Z,60.88
2023-06-11T01:25:12.400Z,60.79
2023-06-11T01:27:28.960Z,60.77
2023-06-11T01:29:30.803Z,60.61
2023-06-11T01:31:35.684Z,60.40
2023-06-11T01:33:37.406Z,60.49
2023-06-11T01:35:40.281Z,60.26
2023-06-11T01:37:46.555Z,60.18
2023-06-11T01:39:48.570Z,60.23
2023-06-11T01:41:50.256Z,60.15
2023-06-11T01:43:51.795Z,60.25
2023-06-11T01:45:53.295Z,59.91
2023-06-11T01:47:55.172Z,59.96
2023-06-11T01:49:56.707Z,59.87
2023-06-11T01:51:58.230Z,59.96
2023-06-11T01:54:00.471Z,59.85
2023-06-11T01:56:02.064Z,59.72
2023-06-11T01:58:03.558Z,60.04
2023-06-11T02:00:07.936Z,59.88
2023-06-11T02:02:09.571Z,59.79
2023-06-11T02:04:11.603Z,59.88
2023-06-11T02:06:13.168Z,59.79
2023-06-11T02:08:14.671Z,59.95
2023-06-11T02:10:16.225Z,60.01
2023-06-11T02:12:17.706Z,59.79
2023-06-11T02:14:19.258Z,59.91
2023-06-11T02:16:20.793Z,60.13
2023-06-11T02:18:22.275Z,60.30
2023-06-11T02:20:23.799Z,60.35
2023-06-11T02:22:25.295Z,60.09
2023-06-11T02:24:27.355Z,60.39
2023-06-11T02:26:28.858Z,60.28
2023-06-11T02:28:30.351Z,60.18
2023-06-11T02:30:31.838Z,60.47
2023-06-11T02:32:33.403Z,60.48
2023-06-11T02:34:34.973Z,60.25
2023-06-11T02:36:37.556Z,60.24
2023-06-11T02:38:39.166Z,60.28
2023-06-11T02:40:40.650Z,60.39
2023-06-11T02:42:42.219Z,60.35
2023-06-11T02:44:43.744Z,60.32
2023-06-11T02:46:45.292Z,60.46
2023-06-11T02:48:46.826Z,60.40
2023-06-11T02:50:48.303Z,60.43
2023-06-11T02:52:49.822Z,60.57
2023-06-11T02:54:51.387Z,60.75
2023-06-11T02:56:52.935Z,60.56
2023-06-11T02:58:54.498Z,60.59
2023-06-11T03:00:55.995Z,60.67
2023-06-11T03:02:57.520Z,60.81
2023-06-11T03:04:59.111Z,60.36
2023-06-11T03:07:00.674Z,60.71
2023-06-11T03:09:02.162Z,60.56
2023-06-11T03:11:03.658Z,60.76
2023-06-11T03:13:05.361Z,60.80
2023-06-11T03:15:07.614Z,60.81
2023-06-11T03:17:09.192Z,60.63
2023-06-11T03:19:10.923Z,60.96
2023-06-11T03:21:12.659Z,60.67
2023-06-11T03:23:15.642Z,60.76
2023-06-11T03:25:17.380Z,60.59
2023-06-11T03:27:18.865Z,60.57
2023-06-11T03:29:20.375Z,60.53
2023-06-11T03:31:22.124Z,60.47
2023-06-11T03:33:23.648Z,60.85
2023-06-11T03:35:25.295Z,60.78
2023-06-11T03:37:26.819Z,60.86
2023-06-11T03:39:28.351Z,60.85
2023-06-11T03:41:29.883Z,61.00
2023-06-11T03:43:31.393Z,60.73
2023-06-11T03:45:32.880Z,61.04
2023-06-11T03:47:34.433Z,60.87
2023-06-11T03:49:36.091Z,60.89
2023-06-11T03:51:38.063Z,60.79
2023-06-11T03:53:39.601Z,61.07
2023-06-11T03:55:41.147Z,60.58
2023-06-11T03:57:43.187Z,60.82
2023-06-11T03:59:44.695Z,60.80
2023-06-11T04:01:46.267Z,60.84
2023-06-11T04:03:47.890Z,60.72
2023-06-11T04:05:49.553Z,60.68
2023-06-11T04:07:51.078Z,60.17
2023-06-11T04:09:52.570Z,60.35
2023-06-11T04:11:54.068Z,60.14
2023-06-11T04:13:55.623Z,59.79
2023-06-11T04:15:57.145Z,59.96
2023-06-11T04:17:58.932Z,59.38
2023-06-11T04:20:00.597Z,59.03
2023-06-11T04:22:02.280Z,58.80
2023-06-11T04:24:07.441Z,58.53
2023-06-11T04:26:11.344Z,58.38
2023-06-11T04:28:17.267Z,58.35
2023-06-11T04:30:19.246Z,58.29
2023-06-11T04:32:22.343Z,57.90
2023-06-11T04:34:30.269Z,58.18
2023-06-11T04:36:31.795Z,58.21
2023-06-11T04:38:33.302Z,58.20
2023-06-11T04:40:35.135Z,58.29
2023-06-11T04:42:41.776Z,57.94
2023-06-11T04:44:43.304Z,58.08
2023-06-11T04:46:44.848Z,58.23
2023-06-11T04:48:49.594Z,57.93
2023-06-11T04:50:52.587Z,57.57
2023-06-11T04:52:54.339Z,57.84
2023-06-11T04:54:56.521Z,57.93
2023-06-11T04:56:58.019Z,57.71
2023-06-11T04:58:59.633Z,58.03
2023-06-11T05:01:01.276Z,57.58
2023-06-11T05:03:03.281Z,57.95
2023-06-11T05:05:08.358Z,57.73
2023-06-11T05:07:10.006Z,58.15
2023-06-11T05:09:15.071Z,57.76
2023-06-11T05:11:16.665Z,57.88
2023-06-11T05:13:23.422Z,58.08
2023-06-11T05:15:24.930Z,57.56
2023-06-11T05:17:26.432Z,58.44
2023-06-11T05:19:27.946Z,58.16
2023-06-11T05:21:29.643Z,58.19
2023-06-11T05:23:32.801Z,58.84
2023-06-11T05:25:34.371Z,58.45
2023-06-11T05:27:35.875Z,59.04
2023-06-11T05:29:39.092Z,59.13
2023-06-11T05:31:40.902Z,58.58
2023-06-11T05:33:42.583Z,58.93
2023-06-11T05:35:44.656Z,58.30
2023-06-11T05:37:46.348Z,58.56
2023-06-11T05:39:47.885Z,59.06
2023-06-11T05:41:49.411Z,59.83
2023-06-11T05:43:51.545Z,59.42
2023-06-11T05:45:53.563Z,59.53
2023-06-11T05:47:55.138Z,60.41
2023-06-11T05:49:56.786Z,60.42
2023-06-11T05:51:58.288Z,60.53
2023-06-11T05:54:02.592Z,60.88
2023-06-11T05:56:07.092Z,60.59
2023-06-11T05:58:08.653Z,59.53
2023-06-11T06:00:17.009Z,61.18
2023-06-11T06:02:19.206Z,61.15
2023-06-11T06:04:21.198Z,61.46
2023-06-11T06:06:22.904Z,61.40
2023-06-11T06:08:24.467Z,61.47
2023-06-11T06:10:26.094Z,61.59
2023-06-11T06:12:27.581Z,61.57
2023-06-11T06:14:29.081Z,61.35
2023-06-11T06:16:32.550Z,61.30
2023-06-11T06:18:35.648Z,61.28
2023-06-11T06:20:37.291Z,58.74
2023-06-11T06:22:39.317Z,59.78
2023-06-11T06:24:40.797Z,60.42
2023-06-11T06:26:42.479Z,60.82
2023-06-11T06:28:43.972Z,59.40
2023-06-11T06:30:45.480Z,59.93
2023-06-11T06:32:47.078Z,60.64
2023-06-11T06:34:48.568Z,60.53
2023-06-11T06:36:50.256Z,60.45
2023-06-11T06:38:51.759Z,60.11
2023-06-11T06:40:53.379Z,60.39
2023-06-11T06:42:54.958Z,59.95
2023-06-11T06:44:56.478Z,59.58
2023-06-11T06:46:58.012Z,59.74
2023-06-11T06:48:59.819Z,59.28
2023-06-11T06:51:01.650Z,59.39
2023-06-11T06:53:03.152Z,59.58
2023-06-11T06:55:05.728Z,59.42
2023-06-11T06:57:11.599Z,59.07
2023-06-11T06:59:13.218Z,58.53
2023-06-11T07:01:14.810Z,58.63
2023-06-11T07:03:16.486Z,59.42
2023-06-11T07:05:18.623Z,59.84
2023-06-11T07:07:20.341Z,58.20
2023-06-11T07:09:22.156Z,56.86
2023-06-11T07:11:23.818Z,59.71
2023-06-11T07:13:25.799Z,58.77
2023-06-11T07:15:27.467Z,58.83
2023-06-11T07:17:29.420Z,58.18
2023-06-11T07:19:30.988Z,59.08
2023-06-11T07:21:33.584Z,56.97
2023-06-11T07:23:35.172Z,58.50
2023-06-11T07:25:38.979Z,57.21
2023-06-11T07:27:41.593Z,53.24
2023-06-11T07:29:43.240Z,55.45
2023-06-11T07:31:44.844Z,59.95
2023-06-11T08:02:30.624Z,57.47
2023-06-11T08:04:33.644Z,55.94
2023-06-11T08:06:36.553Z,55.02
2023-06-11T08:08:38.900Z,54.98
2023-06-11T08:10:41.082Z,55.91
2023-06-11T08:12:42.739Z,54.24
2023-06-11T08:14:44.620Z,51.45
2023-06-11T08:16:47.085Z,50.80
2023-06-11T08:18:48.739Z,50.99
2023-06-11T08:20:50.560Z,51.50
2023-06-11T08:22:52.204Z,53.02
2023-06-11T08:24:54.092Z,53.10
2023-06-11T08:26:55.710Z,52.09
2023-06-11T08:28:57.534Z,53.01
2023-06-11T08:30:59.520Z,53.73
2023-06-11T08:33:01.465Z,53.06
2023-06-11T08:35:03.191Z,49.10
2023-06-11T08:37:05.310Z,50.04
2023-06-11T08:39:06.871Z,52.94
2023-06-11T08:41:08.857Z,54.43
2023-06-11T08:43:11.368Z,52.64
2023-06-11T08:45:13.105Z,53.70
2023-06-11T08:47:15.760Z,53.33
2023-06-11T08:49:22.780Z,51.88
2023-06-11T08:51:27.648Z,52.65
2023-06-11T08:53:29.471Z,53.66
2023-06-11T08:55:31.167Z,53.97
2023-06-11T08:57:32.732Z,53.16
2023-06-11T08:59:34.631Z,52.80
2023-06-11T09:01:36.598Z,53.58
2023-06-11T09:03:39.132Z,53.56
2023-06-11T09:05:41.195Z,48.07
2023-06-11T09:07:50.740Z,50.96
2023-06-11T09:10:10.145Z,49.48
2023-06-11T09:12:12.782Z,48.83
2023-06-11T09:14:14.931Z,47.92
2023-06-11T09:16:16.762Z,45.61
2023-06-11T09:18:28.794Z,46.56
2023-06-11T09:20:32.778Z,47.56
2023-06-11T09:22:37.730Z,47.14
2023-06-11T09:24:39.711Z,48.32
2023-06-11T09:26:50.194Z,47.31
2023-06-11T09:28:54.665Z,46.23
2023-06-11T09:30:57.951Z,46.16
2023-06-11T09:32:59.542Z,46.33
2023-06-11T09:35:01.756Z,45.83
2023-06-11T09:37:03.723Z,45.34
2023-06-11T09:39:05.292Z,45.18
2023-06-11T09:41:09.945Z,44.70
2023-06-11T09:43:11.581Z,45.43
2023-06-11T09:45:20.372Z,45.52
2023-06-11T09:47:22.188Z,46.89
2023-06-11T09:49:25.129Z,48.43
2023-06-11T09:51:27.233Z,48.57
2023-06-11T09:53:29.020Z,50.11
2023-06-11T09:55:36.347Z,50.04
2023-06-11T09:57:42.010Z,51.43
2023-06-11T09:59:44.057Z,48.37
2023-06-11T10:01:48.981Z,44.89
2023-06-11T10:03:50.813Z,44.12
2023-06-11T10:05:53.462Z,43.80
2023-06-11T10:08:17.235Z,43.33
2023-06-11T10:10:22.296Z,43.61
2023-06-11T10:12:23.962Z,42.93
2023-06-11T10:14:25.664Z,44.42
2023-06-11T10:16:28.806Z,45.15
2023-06-11T10:18:31.683Z,44.52
2023-06-11T10:20:36.440Z,42.14
2023-06-11T10:22:38.077Z,42.11
2023-06-11T10:24:39.984Z,41.56
2023-06-11T10:26:41.559Z,42.00
2023-06-11T10:28:45.857Z,41.32
2023-06-11T10:30:57.140Z,40.86
2023-06-11T10:32:59.571Z,40.15
2023-06-11T10:35:07.926Z,40.91
2023-06-11T10:37:10.639Z,40.60
2023-06-11T10:39:22.107Z,39.82
2023-06-11T10:41:31.013Z,38.35
2023-06-11T10:43:33.772Z,41.80
2023-06-11T10:45:37.453Z,40.51
2023-06-11T10:47:53.060Z,42.22
2023-06-11T10:50:08.786Z,39.27
2023-06-11T10:52:10.656Z,35.22
2023-06-11T10:54:12.131Z,33.92
2023-06-11T10:56:14.440Z,31.65
2023-06-11T10:58:22.882Z,35.82
2023-06-11T11:00:25.212Z,40.71
2023-06-11T11:02:27.944Z,41.53
2023-06-11T11:04:29.490Z,37.60
2023-06-11T11:06:31.335Z,40.18
2023-06-11T11:08:32.878Z,42.14
2023-06-11T11:10:34.364Z,36.19
2023-06-11T11:12:41.348Z,36.12
2023-06-11T11:14:42.980Z,39.29
2023-06-11T11:16:48.371Z,38.09
2023-06-11T11:18:50.843Z,35.91
2023-06-11T11:20:55.897Z,33.87
2023-06-11T11:22:58.068Z,34.28
2023-06-11T11:25:01.575Z,30.81
2023-06-11T11:27:03.116Z,30.94
2023-06-11T11:29:04.607Z,28.62
2023-06-11T11:31:06.451Z,31.21
2023-06-11T11:33:08.426Z,28.24
2023-06-11T11:35:12.767Z,27.77
2023-06-11T11:37:14.340Z,24.35
2023-06-11T11:39:15.976Z,34.55
2023-06-11T11:41:22.586Z,35.45
2023-06-11T11:43:24.520Z,34.13
2023-06-11T11:45:34.398Z,35.09
2023-06-11T11:47:36.631Z,34.91
2023-06-11T11:49:38.594Z,35.16
2023-06-11T11:51:46.813Z,35.75
2023-06-11T11:53:49.001Z,35.25
2023-06-11T11:56:04.490Z,32.60
2023-06-11T11:58:09.262Z,30.16
2023-06-11T12:00:11.426Z,27.42
2023-06-11T12:02:13.066Z,28.33
2023-06-11T12:04:14.565Z,25.61
2023-06-11T12:06:24.621Z,27.63
2023-06-11T12:08:28.133Z,32.71
2023-06-11T12:10:29.638Z,30.24
2023-06-11T12:12:31.098Z,33.37
2023-06-11T12:14:32.992Z,34.34
2023-06-11T12:16:35.292Z,31.52
2023-06-11T12:18:36.778Z,29.01
2023-06-11T12:20:38.296Z,23.25
2023-06-11T12:22:40.169Z,30.83
2023-06-11T12:24:41.776Z,29.53
2023-06-11T12:26:47.606Z,27.79
2023-06-11T12:28:50.893Z,33.12
2023-06-11T12:30:52.675Z,35.22
2023-06-11T12:32:54.190Z,33.27
2023-06-11T12:34:55.680Z,29.54
2023-06-11T12:36:57.215Z,27.40
2023-06-11T12:38:58.707Z,34.80
2023-06-11T12:41:00.552Z,24.67
2023-06-11T12:43:02.077Z,28.46
2023-06-11T12:45:04.647Z,36.70
2023-06-11T12:47:06.731Z,35.89
2023-06-11T12:49:08.195Z,24.57
2023-06-11T12:51:09.806Z,38.56
2023-06-11T12:53:11.374Z,33.52
2023-06-11T12:55:14.649Z,28.66
2023-06-11T12:57:16.442Z,26.07
2023-06-11T12:59:18.747Z,32.94
2023-06-11T13:01:20.636Z,40.37
2023-06-11T13:03:22.233Z,43.09
2023-06-11T13:05:23.758Z,42.74
2023-06-11T13:07:25.340Z,42.49
2023-06-11T13:09:26.825Z,29.23
2023-06-11T13:11:28.467Z,37.63
2023-06-11T13:13:30.568Z,41.40
2023-06-11T13:15:32.187Z,42.87
2023-06-11T13:17:33.721Z,42.65
2023-06-11T13:19:35.417Z,37.79
2023-06-11T13:21:37.255Z,37.49
2023-06-11T13:23:38.795Z,36.74
2023-06-11T13:25:40.275Z,39.97
2023-06-11T13:27:42.269Z,40.14
2023-06-11T13:29:43.860Z,32.56
2023-06-11T13:31:45.483Z,35.44
2023-06-11T13:33:47.033Z,28.97
2023-06-11T13:35:49.872Z,35.65
2023-06-11T13:37:51.399Z,42.00
2023-06-11T13:39:53.021Z,27.61
2023-06-11T13:41:54.556Z,42.77
2023-06-11T13:43:56.120Z,37.73
2023-06-11T13:45:59.555Z,44.62
2023-06-11T13:48:14.851Z,40.88
2023-06-11T13:50:16.486Z,43.77
2023-06-11T13:52:19.516Z,43.80
2023-06-11T13:54:21.020Z,35.12
2023-06-11T13:56:22.773Z,37.98
2023-06-11T13:58:26.024Z,43.48
2023-06-11T14:00:28.116Z,43.08
2023-06-11T14:02:29.723Z,44.03
2023-06-11T14:04:31.366Z,34.78
2023-06-11T14:06:33.548Z,31.69
2023-06-11T14:08:35.241Z,34.72
2023-06-11T14:10:36.753Z,27.70
2023-06-11T14:12:38.283Z,27.95
2023-06-11T14:14:39.801Z,41.20
2023-06-11T14:16:41.883Z,33.44
2023-06-11T14:18:43.449Z,39.72
2023-06-11T14:20:44.974Z,36.88
2023-06-11T14:22:46.956Z,36.74
2023-06-11T14:24:48.704Z,36.24
2023-06-11T14:26:52.262Z,36.94
2023-06-11T14:28:54.043Z,45.53
2023-06-11T14:30:55.644Z,42.58
2023-06-11T14:32:57.260Z,30.12
2023-06-11T14:34:59.367Z,29.88
2023-06-11T14:37:01.104Z,34.78
2023-06-11T14:39:02.631Z,41.09
2023-06-11T14:41:04.188Z,28.81
2023-06-11T14:43:05.729Z,27.66
2023-06-11T14:45:07.950Z,28.17
2023-06-11T14:47:09.561Z,31.40
2023-06-11T14:49:12.037Z,42.25
2023-06-11T14:51:13.612Z,33.09
2023-06-11T14:53:15.200Z,32.59
2023-06-11T14:55:16.967Z,30.17
2023-06-11T14:57:21.085Z,41.29
2023-06-11T14:59:23.983Z,44.69
2023-06-11T15:01:25.583Z,45.55
2023-06-11T15:03:27.214Z,45.74
2023-06-11T15:05:28.768Z,45.55
2023-06-11T15:07:35.351Z,44.24
2023-06-11T15:09:38.400Z,45.67
2023-06-11T15:11:39.895Z,46.42
2023-06-11T15:13:42.025Z,45.07
2023-06-11T15:15:43.532Z,45.70
2023-06-11T15:17:45.049Z,44.61
2023-06-11T15:19:46.647Z,45.44
2023-06-11T15:21:48.845Z,44.61
2023-06-11T15:23:50.458Z,45.21
2023-06-11T15:25:52.919Z,42.62
2023-06-11T15:27:54.663Z,42.92
2023-06-11T15:29:56.238Z,43.24
2023-06-11T15:31:59.508Z,43.54
2023-06-11T15:34:01.022Z,43.77
2023-06-11T15:36:02.662Z,42.30
2023-06-11T15:38:05.470Z,44.18
2023-06-11T15:40:07.652Z,41.09
2023-06-11T15:42:09.263Z,47.80
2023-06-11T15:44:10.799Z,47.22
2023-06-11T15:46:12.368Z,45.34
2023-06-11T15:48:13.939Z,40.03
2023-06-11T15:50:15.832Z,40.86
2023-06-11T15:52:17.592Z,47.79
2023-06-11T15:54:19.296Z,48.04
2023-06-11T15:56:20.866Z,47.80
2023-06-11T15:58:22.364Z,47.23
2023-06-11T16:00:25.083Z,44.39
2023-06-11T16:02:26.696Z,46.56
2023-06-11T16:04:28.345Z,47.41
2023-06-11T16:06:29.882Z,47.13
2023-06-11T16:08:31.470Z,48.86
2023-06-11T16:10:33.127Z,48.24
2023-06-11T16:12:34.719Z,47.52
2023-06-11T16:14:36.443Z,47.64
2023-06-11T16:16:38.660Z,45.67
2023-06-11T16:18:40.218Z,46.13
2023-06-11T16:20:41.845Z,46.40
2023-06-11T16:22:43.440Z,47.79
2023-06-11T16:24:44.959Z,46.40
2023-06-11T16:26:47.242Z,47.11
2023-06-11T16:28:50.619Z,42.11
2023-06-11T16:30:52.141Z,47.26
2023-06-11T16:32:53.751Z,46.89
2023-06-11T16:34:55.536Z,46.72
2023-06-11T16:36:57.134Z,45.84
2023-06-11T16:39:09.422Z,47.35
2023-06-11T16:41:18.577Z,46.46
2023-06-11T16:43:20.063Z,47.23
2023-06-11T16:45:21.647Z,46.50
2023-06-11T16:47:24.332Z,45.88
2023-06-11T16:49:26.331Z,45.55
2023-06-11T16:51:29.044Z,46.01
2023-06-11T16:53:30.543Z,46.92
2023-06-11T16:55:32.225Z,47.14
2023-06-11T16:57:33.955Z,45.73
2023-06-11T16:59:35.434Z,44.76
2023-06-11T17:01:36.973Z,47.53
2023-06-11T17:03:38.627Z,46.24
2023-06-11T17:05:40.482Z,46.85
2023-06-11T17:07:45.234Z,46.50
2023-06-11T17:09:46.829Z,45.73
2023-06-11T17:11:48.323Z,46.50
2023-06-11T17:13:50.426Z,46.62
2023-06-11T17:15:52.082Z,46.27
2023-06-11T17:17:54.506Z,45.56
2023-06-11T17:19:56.261Z,43.02
2023-06-11T17:21:57.781Z,45.62
2023-06-11T17:23:59.322Z,45.94
2023-06-11T17:26:00.996Z,45.12
2023-06-11T17:28:03.190Z,46.64
2023-06-11T17:30:06.256Z,42.01
2023-06-11T17:32:08.316Z,47.10
2023-06-11T17:34:09.901Z,46.02
2023-06-11T17:36:11.480Z,45.88
2023-06-11T17:38:13.006Z,45.63
2023-06-11T17:40:16.875Z,46.08
2023-06-11T17:42:19.263Z,46.83
2023-06-11T17:44:20.834Z,46.81
2023-06-11T17:46:22.445Z,47.47
2023-06-11T17:48:24.033Z,46.43
2023-06-11T17:50:25.907Z,46.00
2023-06-11T17:52:27.436Z,47.88
2023-06-11T17:54:28.944Z,46.11
2023-06-11T17:56:30.643Z,46.44
2023-06-11T17:58:32.210Z,44.50
2023-06-11T18:00:33.855Z,46.47
2023-06-11T18:02:36.452Z,45.62
2023-06-11T18:04:37.988Z,45.35
2023-06-11T18:06:39.562Z,46.55
2023-06-11T18:08:41.105Z,46.33
2023-06-11T18:10:42.634Z,47.23
2023-06-11T18:12:45.411Z,46.32
2023-06-11T18:14:47.372Z,46.00
2023-06-11T18:16:49.697Z,46.26
2023-06-11T18:18:51.576Z,44.38
2023-06-11T18:20:53.251Z,46.96
2023-06-11T18:22:55.085Z,46.68
2023-06-11T18:24:56.578Z,46.28
2023-06-11T18:26:58.079Z,45.30
2023-06-11T18:28:59.630Z,45.13
2023-06-11T18:31:01.447Z,46.41
2023-06-11T18:33:03.195Z,45.91
2023-06-11T18:35:05.398Z,47.15
2023-06-11T18:37:06.883Z,47.30
2023-06-11T18:39:08.398Z,46.33
2023-06-11T18:41:10.102Z,46.73
2023-06-11T18:43:11.783Z,46.28
2023-06-11T18:45:13.433Z,45.53
2023-06-11T18:47:15.257Z,47.67
2023-06-11T18:49:16.827Z,48.58
2023-06-11T18:51:18.565Z,47.49
2023-06-11T18:53:20.091Z,45.26
2023-06-11T18:55:22.804Z,49.29
2023-06-11T18:57:27.518Z,48.74
2023-06-11T18:59:29.712Z,48.61
2023-06-11T19:01:31.398Z,47.58
2023-06-11T19:03:35.317Z,49.94
2023-06-11T19:05:42.323Z,48.44
2023-06-11T19:07:44.017Z,49.50
2023-06-11T19:09:45.655Z,49.98
2023-06-11T19:11:48.947Z,49.72
2023-06-11T19:13:51.393Z,49.38
2023-06-11T19:15:54.939Z,49.32
2023-06-11T19:17:56.481Z,49.30
2023-06-11T19:19:58.115Z,50.11
2023-06-11T19:21:59.614Z,49.81
2023-06-11T19:24:01.240Z,49.16
2023-06-11T19:26:03.035Z,48.96
2023-06-11T19:28:04.713Z,50.62
2023-06-11T19:30:06.900Z,50.60
2023-06-11T19:32:08.770Z,50.72
2023-06-11T19:34:10.305Z,50.48
2023-06-11T19:36:12.114Z,50.79
2023-06-11T19:38:13.894Z,50.93
2023-06-11T19:40:16.083Z,51.35
2023-06-11T19:42:17.619Z,50.80
2023-06-11T19:44:19.222Z,50.95
2023-06-11T19:46:21.479Z,51.01
2023-06-11T19:48:24.259Z,51.06
2023-06-11T19:50:27.380Z,51.12
2023-06-11T19:52:28.989Z,51.62
2023-06-11T19:54:45.924Z,51.26
2023-06-11T19:56:51.816Z,51.03
2023-06-11T19:58:54.392Z,51.72
2023-06-11T20:00:56.295Z,52.16
2023-06-11T20:02:57.920Z,51.88
2023-06-11T20:04:59.530Z,51.59
2023-06-11T20:07:01.014Z,51.33
2023-06-11T20:09:04.473Z,51.81
2023-06-11T20:11:11.420Z,51.42
2023-06-11T20:13:13.162Z,51.88
2023-06-11T20:15:15.038Z,51.45
2023-06-11T20:17:16.586Z,51.94
2023-06-11T20:19:18.514Z,51.71
2023-06-11T20:21:20.044Z,52.13
2023-06-11T20:23:21.526Z,52.28
2023-06-11T20:25:23.083Z,52.46
2023-06-11T20:27:25.242Z,52.32
2023-06-11T20:29:26.817Z,52.30
2023-06-11T20:31:28.467Z,52.43
2023-06-11T20:33:35.620Z,51.96
2023-06-11T20:35:37.105Z,52.25
2023-06-11T20:37:38.663Z,52.29
2023-06-11T20:39:40.408Z,52.41
2023-06-11T20:41:41.908Z,52.65
2023-06-11T20:43:43.427Z,52.48
2023-06-11T20:45:54.569Z,52.61
2023-06-11T20:47:59.645Z,53.11
2023-06-11T20:50:01.388Z,52.92
2023-06-11T20:52:02.993Z,52.90
2023-06-11T20:54:04.704Z,53.26
2023-06-11T20:56:06.444Z,53.39
2023-06-11T20:58:07.964Z,53.29
2023-06-11T21:00:10.319Z,53.58
2023-06-11T21:02:12.138Z,53.52
2023-06-11T21:04:13.730Z,53.57
2023-06-11T21:06:15.483Z,53.79
2023-06-11T21:08:18.916Z,53.58
2023-06-11T21:10:20.612Z,53.98
2023-06-11T21:12:22.589Z,54.25
2023-06-11T21:14:24.309Z,53.81
2023-06-11T21:16:25.866Z,53.98
2023-06-11T21:18:27.374Z,54.44
2023-06-11T21:20:28.941Z,53.90
2023-06-11T21:22:30.433Z,54.14
2023-06-11T21:24:31.930Z,54.87
2023-06-11T21:26:33.885Z,54.43
2023-06-11T21:28:37.066Z,54.67
2023-06-11T21:30:38.713Z,54.82
2023-06-11T21:32:40.442Z,54.66
2023-06-11T21:34:42.005Z,54.44
2023-06-11T21:36:44.180Z,54.41
2023-06-11T21:38:45.808Z,55.22
2023-06-11T21:40:47.348Z,54.74
2023-06-11T21:42:48.874Z,54.80
2023-06-11T21:44:50.366Z,55.15
2023-06-11T21:46:51.954Z,55.38
2023-06-11T21:48:53.520Z,55.36
2023-06-11T21:50:54.997Z,55.08
2023-06-11T21:52:56.731Z,55.32
2023-06-11T21:54:58.367Z,54.92
2023-06-11T21:56:59.932Z,55.65
2023-06-11T21:59:01.419Z,55.66
2023-06-11T22:01:03.013Z,55.64
2023-06-11T22:03:05.050Z,56.09
2023-06-11T22:05:07.936Z,56.39
2023-06-11T22:07:09.471Z,56.16
2023-06-11T22:09:12.332Z,56.22
2023-06-11T22:11:13.865Z,56.55
2023-06-11T22:13:16.517Z,56.19
2023-06-11T22:15:18.133Z,56.39
2023-06-11T22:17:22.757Z,56.26
2023-06-11T22:19:25.257Z,56.39
2023-06-11T22:21:26.879Z,56.49
2023-06-11T22:23:45.164Z,56.51
2023-06-11T22:25:51.032Z,56.58
2023-06-11T22:27:52.941Z,57.03
2023-06-11T22:29:54.437Z,56.79
2023-06-11T22:31:56.005Z,56.62
2023-06-11T22:33:57.933Z,56.87
2023-06-11T22:35:59.436Z,56.76
2023-06-11T22:38:00.906Z,56.88
2023-06-11T22:40:03.843Z,56.91
2023-06-11T22:42:05.808Z,56.99
2023-06-11T22:44:07.414Z,57.08
2023-06-11T22:46:08.992Z,57.25
2023-06-11T22:48:11.282Z,57.29
2023-06-11T22:50:13.196Z,57.18
2023-06-11T22:52:17.558Z,57.27
2023-06-11T22:54:19.103Z,57.45
2023-06-11T22:56:21.487Z,57.61
2023-06-11T22:58:23.329Z,57.56
2023-06-11T23:00:24.862Z,57.57
2023-06-11T23:02:26.543Z,57.72
2023-06-11T23:04:28.160Z,57.76
2023-06-11T23:06:30.353Z,57.87
2023-06-11T23:08:31.860Z,57.98
2023-06-11T23:10:33.355Z,57.98
2023-06-11T23:12:34.855Z,57.79
2023-06-11T23:14:36.316Z,58.19
2023-06-11T23:16:38.522Z,58.08
2023-06-11T23:18:41.239Z,58.20
2023-06-11T23:20:43.785Z,58.26
2023-06-11T23:22:48.006Z,58.21
2023-06-11T23:24:50.756Z,58.16
2023-06-11T23:26:53.566Z,58.23
2023-06-11T23:28:57.111Z,58.20
2023-06-11T23:30:58.661Z,58.40
2023-06-11T23:33:01.217Z,58.58
2023-06-11T23:35:03.932Z,58.41
2023-06-11T23:37:07.436Z,58.40
2023-06-11T23:39:10.614Z,58.60
2023-06-11T23:41:12.632Z,58.39
2023-06-11T23:43:14.134Z,58.45
2023-06-11T23:45:15.777Z,58.73
2023-06-11T23:47:17.338Z,58.50
2023-06-11T23:49:18.859Z,58.62
2023-06-11T23:51:21.170Z,58.71
2023-06-11T23:53:23.188Z,58.98
2023-06-11T23:55:25.025Z,59.00
2023-06-11T23:57:27.064Z,58.98
2023-06-11T23:59:28.526Z,58.96
